sensor_id;sensor_type;location;lat;lon;timestamp;pressure;altitude;pressure_sealevel;temperature;humidity
63970;BME280;50156;37.772;-122.432;2022-10-18T00:01:09;101172.11;;;19.82;100.00
63970;BME280;50156;37.772;-122.432;2022-10-18T00:03:39;101166.06;;;19.89;100.00
63970;BME280;50156;37.772;-122.432;2022-10-18T00:06:08;101164.14;;;19.82;100.00
63970;BME280;50156;37.772;-122.432;2022-10-18T00:08:37;101168.17;;;19.62;100.00
63970;BME280;50156;37.772;-122.432;2022-10-18T00:11:07;101167.87;;;19.74;100.00
63970;BME280;50156;37.772;-122.432;2022-10-18T00:13:36;101166.50;;;19.53;100.00
63970;BME280;50156;37.772;-122.432;2022-10-18T00:16:10;101160.11;;;19.40;100.00
63970;BME280;50156;37.772;-122.432;2022-10-18T00:18:40;101153.21;;;19.32;100.00
63970;BME280;50156;37.772;-122.432;2022-10-18T00:21:11;101148.45;;;19.24;100.00
63970;BME280;50156;37.772;-122.432;2022-10-18T00:23:42;101149.64;;;19.40;100.00
63970;BME280;50156;37.772;-122.432;2022-10-18T00:26:13;101147.69;;;19.38;100.00
63970;BME280;50156;37.772;-122.432;2022-10-18T00:28:42;101142.41;;;19.06;100.00
63970;BME280;50156;37.772;-122.432;2022-10-18T00:31:14;101138.80;;;18.97;100.00
63970;BME280;50156;37.772;-122.432;2022-10-18T00:33:44;101136.16;;;18.96;100.00
63970;BME280;50156;37.772;-122.432;2022-10-18T00:36:13;101132.74;;;19.00;100.00
63970;BME280;50156;37.772;-122.432;2022-10-18T00:38:42;101130.52;;;18.71;100.00
63970;BME280;50156;37.772;-122.432;2022-10-18T00:41:13;101128.38;;;18.62;100.00
63970;BME280;50156;37.772;-122.432;2022-10-18T00:43:53;101124.70;;;18.31;100.00
63970;BME280;50156;37.772;-122.432;2022-10-18T00:46:24;101117.57;;;18.07;100.00
63970;BME280;50156;37.772;-122.432;2022-10-18T00:48:56;101109.36;;;17.98;100.00
63970;BME280;50156;37.772;-122.432;2022-10-18T00:51:29;101104.21;;;17.91;100.00
63970;BME280;50156;37.772;-122.432;2022-10-18T00:53:58;101099.06;;;17.84;100.00
63970;BME280;50156;37.772;-122.432;2022-10-18T00:56:27;101092.04;;;17.77;100.00
63970;BME280;50156;37.772;-122.432;2022-10-18T00:58:57;101089.08;;;17.66;100.00
63970;BME280;50156;37.772;-122.432;2022-10-18T01:01:26;101086.31;;;17.50;100.00
63970;BME280;50156;37.772;-122.432;2022-10-18T01:03:55;101085.34;;;17.41;100.00
63970;BME280;50156;37.772;-122.432;2022-10-18T01:06:24;101081.05;;;17.28;100.00
63970;BME280;50156;37.772;-122.432;2022-10-18T01:09:05;101075.22;;;17.21;100.00
63970;BME280;50156;37.772;-122.432;2022-10-18T01:11:47;101071.57;;;17.09;100.00
63970;BME280;50156;37.772;-122.432;2022-10-18T01:14:29;101073.91;;;17.09;100.00
63970;BME280;50156;37.772;-122.432;2022-10-18T01:17:07;101075.71;;;17.01;100.00
63970;BME280;50156;37.772;-122.432;2022-10-18T01:20:00;101069.19;;;16.93;100.00
63970;BME280;50156;37.772;-122.432;2022-10-18T01:22:36;101067.69;;;16.88;100.00
63970;BME280;50156;37.772;-122.432;2022-10-18T01:25:16;101066.34;;;16.84;100.00
63970;BME280;50156;37.772;-122.432;2022-10-18T01:27:54;101063.12;;;16.69;100.00
63970;BME280;50156;37.772;-122.432;2022-10-18T01:30:39;101066.26;;;16.63;100.00
63970;BME280;50156;37.772;-122.432;2022-10-18T01:33:18;101066.27;;;16.62;100.00
63970;BME280;50156;37.772;-122.432;2022-10-18T01:35:52;101068.01;;;16.55;100.00
63970;BME280;50156;37.772;-122.432;2022-10-18T01:38:23;101066.76;;;16.54;100.00
63970;BME280;50156;37.772;-122.432;2022-10-18T01:40:54;101064.16;;;16.50;100.00
63970;BME280;50156;37.772;-122.432;2022-10-18T01:43:24;101063.28;;;16.47;100.00
63970;BME280;50156;37.772;-122.432;2022-10-18T01:45:55;101065.83;;;16.44;100.00
63970;BME280;50156;37.772;-122.432;2022-10-18T01:48:25;101066.30;;;16.38;100.00
63970;BME280;50156;37.772;-122.432;2022-10-18T01:50:54;101066.93;;;16.33;100.00
63970;BME280;50156;37.772;-122.432;2022-10-18T01:53:26;101070.03;;;16.34;100.00
63970;BME280;50156;37.772;-122.432;2022-10-18T01:56:10;101073.16;;;16.32;100.00
63970;BME280;50156;37.772;-122.432;2022-10-18T01:58:48;101077.33;;;16.25;100.00
63970;BME280;50156;37.772;-122.432;2022-10-18T02:01:28;101078.43;;;16.27;100.00
63970;BME280;50156;37.772;-122.432;2022-10-18T02:04:06;101075.89;;;16.29;100.00
63970;BME280;50156;37.772;-122.432;2022-10-18T02:06:42;101077.05;;;16.40;100.00
63970;BME280;50156;37.772;-122.432;2022-10-18T02:09:16;101080.25;;;16.40;100.00
63970;BME280;50156;37.772;-122.432;2022-10-18T02:11:48;101082.68;;;16.44;100.00
63970;BME280;50156;37.772;-122.432;2022-10-18T02:14:20;101082.86;;;16.45;100.00
63970;BME280;50156;37.772;-122.432;2022-10-18T02:16:52;101092.24;;;16.44;100.00
63970;BME280;50156;37.772;-122.432;2022-10-18T02:19:26;101093.42;;;16.52;100.00
63970;BME280;50156;37.772;-122.432;2022-10-18T02:21:58;101096.50;;;16.50;100.00
63970;BME280;50156;37.772;-122.432;2022-10-18T02:24:33;101098.69;;;16.52;100.00
63970;BME280;50156;37.772;-122.432;2022-10-18T02:27:04;101101.57;;;16.53;100.00
63970;BME280;50156;37.772;-122.432;2022-10-18T02:29:34;101098.82;;;16.47;100.00
63970;BME280;50156;37.772;-122.432;2022-10-18T02:32:07;101101.27;;;16.53;100.00
63970;BME280;50156;37.772;-122.432;2022-10-18T02:34:40;101105.89;;;16.48;100.00
63970;BME280;50156;37.772;-122.432;2022-10-18T02:37:11;101107.97;;;16.47;100.00
63970;BME280;50156;37.772;-122.432;2022-10-18T02:39:44;101110.98;;;16.47;100.00
63970;BME280;50156;37.772;-122.432;2022-10-18T02:42:15;101111.57;;;16.51;100.00
63970;BME280;50156;37.772;-122.432;2022-10-18T02:44:43;101116.15;;;16.43;100.00
63970;BME280;50156;37.772;-122.432;2022-10-18T02:47:12;101115.17;;;16.46;100.00
63970;BME280;50156;37.772;-122.432;2022-10-18T02:49:42;101114.09;;;16.49;100.00
63970;BME280;50156;37.772;-122.432;2022-10-18T02:52:10;101113.09;;;16.46;100.00
63970;BME280;50156;37.772;-122.432;2022-10-18T02:54:39;101114.70;;;16.45;100.00
63970;BME280;50156;37.772;-122.432;2022-10-18T02:57:08;101120.67;;;16.45;100.00
63970;BME280;50156;37.772;-122.432;2022-10-18T02:59:37;101119.71;;;16.42;100.00
63970;BME280;50156;37.772;-122.432;2022-10-18T03:02:05;101123.08;;;16.47;100.00
63970;BME280;50156;37.772;-122.432;2022-10-18T03:04:34;101124.88;;;16.43;100.00
63970;BME280;50156;37.772;-122.432;2022-10-18T03:07:03;101125.33;;;16.43;100.00
63970;BME280;50156;37.772;-122.432;2022-10-18T03:09:33;101123.52;;;16.44;100.00
63970;BME280;50156;37.772;-122.432;2022-10-18T03:12:01;101121.20;;;16.46;100.00
63970;BME280;50156;37.772;-122.432;2022-10-18T03:14:30;101117.90;;;16.39;100.00
63970;BME280;50156;37.772;-122.432;2022-10-18T03:16:59;101120.97;;;16.43;100.00
63970;BME280;50156;37.772;-122.432;2022-10-18T03:19:28;101119.78;;;16.38;100.00
63970;BME280;50156;37.772;-122.432;2022-10-18T03:21:56;101119.96;;;16.38;100.00
63970;BME280;50156;37.772;-122.432;2022-10-18T03:24:25;101122.93;;;16.35;100.00
63970;BME280;50156;37.772;-122.432;2022-10-18T03:26:54;101122.19;;;16.36;100.00
63970;BME280;50156;37.772;-122.432;2022-10-18T03:29:22;101122.72;;;16.29;100.00
63970;BME280;50156;37.772;-122.432;2022-10-18T03:31:51;101125.33;;;16.27;100.00
63970;BME280;50156;37.772;-122.432;2022-10-18T03:34:20;101129.45;;;16.18;100.00
63970;BME280;50156;37.772;-122.432;2022-10-18T03:36:49;101134.28;;;16.23;100.00
63970;BME280;50156;37.772;-122.432;2022-10-18T03:39:17;101133.25;;;16.15;100.00
63970;BME280;50156;37.772;-122.432;2022-10-18T03:41:46;101135.21;;;16.15;100.00
63970;BME280;50156;37.772;-122.432;2022-10-18T03:44:15;101135.52;;;16.09;100.00
63970;BME280;50156;37.772;-122.432;2022-10-18T03:46:44;101134.94;;;16.10;100.00
63970;BME280;50156;37.772;-122.432;2022-10-18T03:49:12;101134.12;;;16.07;100.00
63970;BME280;50156;37.772;-122.432;2022-10-18T03:51:40;101132.37;;;16.09;100.00
63970;BME280;50156;37.772;-122.432;2022-10-18T03:54:08;101131.29;;;16.14;100.00
63970;BME280;50156;37.772;-122.432;2022-10-18T03:56:37;101130.58;;;16.16;100.00
63970;BME280;50156;37.772;-122.432;2022-10-18T03:59:06;101127.22;;;16.19;100.00
63970;BME280;50156;37.772;-122.432;2022-10-18T04:01:35;101125.57;;;16.20;100.00
63970;BME280;50156;37.772;-122.432;2022-10-18T04:04:04;101124.80;;;16.20;100.00
63970;BME280;50156;37.772;-122.432;2022-10-18T04:06:33;101126.55;;;16.25;100.00
63970;BME280;50156;37.772;-122.432;2022-10-18T04:09:02;101130.49;;;16.20;100.00
63970;BME280;50156;37.772;-122.432;2022-10-18T04:11:32;101133.00;;;16.21;100.00
63970;BME280;50156;37.772;-122.432;2022-10-18T04:14:01;101137.17;;;16.15;100.00
63970;BME280;50156;37.772;-122.432;2022-10-18T04:16:30;101138.74;;;16.18;100.00
63970;BME280;50156;37.772;-122.432;2022-10-18T04:18:59;101137.37;;;16.18;100.00
63970;BME280;50156;37.772;-122.432;2022-10-18T04:21:27;101140.78;;;16.21;100.00
63970;BME280;50156;37.772;-122.432;2022-10-18T04:23:56;101142.80;;;16.16;100.00
63970;BME280;50156;37.772;-122.432;2022-10-18T04:26:24;101150.29;;;16.07;100.00
63970;BME280;50156;37.772;-122.432;2022-10-18T04:28:52;101150.13;;;16.06;100.00
63970;BME280;50156;37.772;-122.432;2022-10-18T04:31:21;101149.89;;;15.98;100.00
63970;BME280;50156;37.772;-122.432;2022-10-18T04:33:50;101150.77;;;15.97;100.00
63970;BME280;50156;37.772;-122.432;2022-10-18T04:36:19;101150.23;;;15.99;100.00
63970;BME280;50156;37.772;-122.432;2022-10-18T04:38:47;101150.26;;;16.00;100.00
63970;BME280;50156;37.772;-122.432;2022-10-18T04:41:16;101156.11;;;15.97;100.00
63970;BME280;50156;37.772;-122.432;2022-10-18T04:43:45;101157.27;;;15.97;100.00
63970;BME280;50156;37.772;-122.432;2022-10-18T04:46:13;101159.74;;;15.94;100.00
63970;BME280;50156;37.772;-122.432;2022-10-18T04:48:42;101164.95;;;15.85;100.00
63970;BME280;50156;37.772;-122.432;2022-10-18T04:51:10;101169.46;;;15.84;100.00
63970;BME280;50156;37.772;-122.432;2022-10-18T04:53:39;101177.13;;;15.74;100.00
63970;BME280;50156;37.772;-122.432;2022-10-18T04:56:08;101175.96;;;15.78;100.00
63970;BME280;50156;37.772;-122.432;2022-10-18T04:58:37;101178.17;;;15.70;100.00
63970;BME280;50156;37.772;-122.432;2022-10-18T05:01:06;101177.49;;;15.60;100.00
63970;BME280;50156;37.772;-122.432;2022-10-18T05:03:35;101179.02;;;15.56;100.00
63970;BME280;50156;37.772;-122.432;2022-10-18T05:06:05;101181.01;;;15.54;100.00
63970;BME280;50156;37.772;-122.432;2022-10-18T05:08:35;101182.65;;;15.52;100.00
63970;BME280;50156;37.772;-122.432;2022-10-18T05:11:04;101185.78;;;15.51;100.00
63970;BME280;50156;37.772;-122.432;2022-10-18T05:13:33;101184.02;;;15.54;100.00
63970;BME280;50156;37.772;-122.432;2022-10-18T05:16:01;101181.74;;;15.46;100.00
63970;BME280;50156;37.772;-122.432;2022-10-18T05:18:30;101180.91;;;15.46;100.00
63970;BME280;50156;37.772;-122.432;2022-10-18T05:20:59;101184.09;;;15.44;100.00
63970;BME280;50156;37.772;-122.432;2022-10-18T05:23:27;101185.29;;;15.45;100.00
63970;BME280;50156;37.772;-122.432;2022-10-18T05:26:01;101189.15;;;15.41;100.00
63970;BME280;50156;37.772;-122.432;2022-10-18T05:28:30;101190.24;;;15.40;100.00
63970;BME280;50156;37.772;-122.432;2022-10-18T05:31:01;101192.34;;;15.36;100.00
63970;BME280;50156;37.772;-122.432;2022-10-18T05:33:31;101190.79;;;15.35;100.00
63970;BME280;50156;37.772;-122.432;2022-10-18T05:36:00;101194.36;;;15.34;100.00
63970;BME280;50156;37.772;-122.432;2022-10-18T05:38:29;101193.55;;;15.34;100.00
63970;BME280;50156;37.772;-122.432;2022-10-18T05:40:58;101195.13;;;15.34;100.00
63970;BME280;50156;37.772;-122.432;2022-10-18T05:43:27;101194.90;;;15.33;100.00
63970;BME280;50156;37.772;-122.432;2022-10-18T05:45:56;101196.39;;;15.34;100.00
63970;BME280;50156;37.772;-122.432;2022-10-18T05:48:25;101198.93;;;15.32;100.00
63970;BME280;50156;37.772;-122.432;2022-10-18T05:50:56;101199.67;;;15.28;100.00
63970;BME280;50156;37.772;-122.432;2022-10-18T05:53:24;101204.04;;;15.33;100.00
63970;BME280;50156;37.772;-122.432;2022-10-18T05:55:53;101203.43;;;15.32;100.00
63970;BME280;50156;37.772;-122.432;2022-10-18T05:58:22;101208.08;;;15.29;100.00
63970;BME280;50156;37.772;-122.432;2022-10-18T06:00:50;101208.99;;;15.30;100.00
63970;BME280;50156;37.772;-122.432;2022-10-18T06:03:19;101205.45;;;15.29;100.00
63970;BME280;50156;37.772;-122.432;2022-10-18T06:05:47;101206.54;;;15.26;100.00
63970;BME280;50156;37.772;-122.432;2022-10-18T06:08:16;101207.83;;;15.29;100.00
63970;BME280;50156;37.772;-122.432;2022-10-18T06:10:45;101208.50;;;15.28;100.00
63970;BME280;50156;37.772;-122.432;2022-10-18T06:13:14;101208.16;;;15.22;100.00
63970;BME280;50156;37.772;-122.432;2022-10-18T06:15:43;101210.31;;;15.19;100.00
63970;BME280;50156;37.772;-122.432;2022-10-18T06:18:12;101209.69;;;15.21;100.00
63970;BME280;50156;37.772;-122.432;2022-10-18T06:20:40;101213.48;;;15.15;100.00
63970;BME280;50156;37.772;-122.432;2022-10-18T06:23:09;101218.90;;;15.18;100.00
63970;BME280;50156;37.772;-122.432;2022-10-18T06:25:38;101221.25;;;15.22;100.00
63970;BME280;50156;37.772;-122.432;2022-10-18T06:28:07;101219.04;;;15.27;100.00
63970;BME280;50156;37.772;-122.432;2022-10-18T06:30:36;101217.60;;;15.36;100.00
63970;BME280;50156;37.772;-122.432;2022-10-18T06:33:04;101213.30;;;15.50;100.00
63970;BME280;50156;37.772;-122.432;2022-10-18T06:35:33;101208.83;;;15.52;100.00
63970;BME280;50156;37.772;-122.432;2022-10-18T06:38:02;101208.41;;;15.60;100.00
63970;BME280;50156;37.772;-122.432;2022-10-18T06:40:32;101209.47;;;15.64;100.00
63970;BME280;50156;37.772;-122.432;2022-10-18T06:43:02;101205.78;;;15.65;100.00
63970;BME280;50156;37.772;-122.432;2022-10-18T06:45:32;101206.51;;;15.65;100.00
63970;BME280;50156;37.772;-122.432;2022-10-18T06:48:00;101206.55;;;15.65;100.00
63970;BME280;50156;37.772;-122.432;2022-10-18T06:50:30;101207.72;;;15.73;100.00
63970;BME280;50156;37.772;-122.432;2022-10-18T06:52:59;101209.27;;;15.75;100.00
63970;BME280;50156;37.772;-122.432;2022-10-18T06:55:28;101210.91;;;15.76;100.00
63970;BME280;50156;37.772;-122.432;2022-10-18T06:57:57;101210.02;;;15.76;100.00
63970;BME280;50156;37.772;-122.432;2022-10-18T07:00:26;101211.43;;;15.70;100.00
63970;BME280;50156;37.772;-122.432;2022-10-18T07:02:55;101214.25;;;15.62;100.00
63970;BME280;50156;37.772;-122.432;2022-10-18T07:05:24;101217.35;;;15.61;100.00
63970;BME280;50156;37.772;-122.432;2022-10-18T07:07:53;101216.86;;;15.54;100.00
63970;BME280;50156;37.772;-122.432;2022-10-18T07:10:22;101214.91;;;15.46;100.00
63970;BME280;50156;37.772;-122.432;2022-10-18T07:12:51;101213.08;;;15.46;100.00
63970;BME280;50156;37.772;-122.432;2022-10-18T07:15:19;101213.73;;;15.47;100.00
63970;BME280;50156;37.772;-122.432;2022-10-18T07:17:48;101213.98;;;15.51;100.00
63970;BME280;50156;37.772;-122.432;2022-10-18T07:20:17;101216.46;;;15.52;100.00
63970;BME280;50156;37.772;-122.432;2022-10-18T07:22:45;101214.85;;;15.50;100.00
63970;BME280;50156;37.772;-122.432;2022-10-18T07:25:14;101222.42;;;15.54;100.00
63970;BME280;50156;37.772;-122.432;2022-10-18T07:27:43;101217.25;;;15.58;100.00
63970;BME280;50156;37.772;-122.432;2022-10-18T07:30:12;101217.54;;;15.53;100.00
63970;BME280;50156;37.772;-122.432;2022-10-18T07:32:41;101215.26;;;15.56;100.00
63970;BME280;50156;37.772;-122.432;2022-10-18T07:35:09;101212.32;;;15.55;100.00
63970;BME280;50156;37.772;-122.432;2022-10-18T07:37:38;101216.68;;;15.55;100.00
63970;BME280;50156;37.772;-122.432;2022-10-18T07:40:08;101222.40;;;15.63;100.00
63970;BME280;50156;37.772;-122.432;2022-10-18T07:42:38;101223.74;;;15.62;100.00
63970;BME280;50156;37.772;-122.432;2022-10-18T07:45:07;101227.95;;;15.64;100.00
63970;BME280;50156;37.772;-122.432;2022-10-18T07:47:36;101232.06;;;15.66;100.00
63970;BME280;50156;37.772;-122.432;2022-10-18T07:50:06;101232.93;;;15.62;100.00
63970;BME280;50156;37.772;-122.432;2022-10-18T07:52:35;101234.90;;;15.63;100.00
63970;BME280;50156;37.772;-122.432;2022-10-18T07:55:04;101235.66;;;15.65;100.00
63970;BME280;50156;37.772;-122.432;2022-10-18T07:57:33;101236.08;;;15.67;100.00
63970;BME280;50156;37.772;-122.432;2022-10-18T08:00:02;101234.17;;;15.65;100.00
63970;BME280;50156;37.772;-122.432;2022-10-18T08:02:31;101233.17;;;15.66;100.00
63970;BME280;50156;37.772;-122.432;2022-10-18T08:04:59;101233.22;;;15.67;100.00
63970;BME280;50156;37.772;-122.432;2022-10-18T08:07:28;101235.33;;;15.65;100.00
63970;BME280;50156;37.772;-122.432;2022-10-18T08:09:56;101235.13;;;15.64;100.00
63970;BME280;50156;37.772;-122.432;2022-10-18T08:12:25;101233.99;;;15.63;100.00
63970;BME280;50156;37.772;-122.432;2022-10-18T08:14:54;101236.47;;;15.61;100.00
63970;BME280;50156;37.772;-122.432;2022-10-18T08:17:23;101238.98;;;15.60;100.00
63970;BME280;50156;37.772;-122.432;2022-10-18T08:19:52;101241.07;;;15.57;100.00
63970;BME280;50156;37.772;-122.432;2022-10-18T08:22:20;101243.34;;;15.56;100.00
63970;BME280;50156;37.772;-122.432;2022-10-18T08:24:49;101237.57;;;15.54;100.00
63970;BME280;50156;37.772;-122.432;2022-10-18T08:27:17;101236.09;;;15.54;100.00
63970;BME280;50156;37.772;-122.432;2022-10-18T08:29:46;101236.91;;;15.48;100.00
63970;BME280;50156;37.772;-122.432;2022-10-18T08:32:15;101240.20;;;15.43;100.00
63970;BME280;50156;37.772;-122.432;2022-10-18T08:34:43;101240.55;;;15.46;100.00
63970;BME280;50156;37.772;-122.432;2022-10-18T08:37:12;101237.89;;;15.45;100.00
63970;BME280;50156;37.772;-122.432;2022-10-18T08:39:41;101237.77;;;15.44;100.00
63970;BME280;50156;37.772;-122.432;2022-10-18T08:42:36;101239.93;;;15.36;100.00
63970;BME280;50156;37.772;-122.432;2022-10-18T08:45:07;101239.63;;;15.35;100.00
63970;BME280;50156;37.772;-122.432;2022-10-18T08:47:40;101236.59;;;15.34;100.00
63970;BME280;50156;37.772;-122.432;2022-10-18T08:50:15;101238.38;;;15.32;100.00
63970;BME280;50156;37.772;-122.432;2022-10-18T08:52:49;101234.78;;;15.34;100.00
63970;BME280;50156;37.772;-122.432;2022-10-18T08:55:23;101232.67;;;15.38;100.00
63970;BME280;50156;37.772;-122.432;2022-10-18T08:57:53;101233.62;;;15.30;100.00
63970;BME280;50156;37.772;-122.432;2022-10-18T09:00:26;101233.39;;;15.40;100.00
63970;BME280;50156;37.772;-122.432;2022-10-18T09:03:10;101231.58;;;15.52;100.00
63970;BME280;50156;37.772;-122.432;2022-10-18T09:05:47;101233.14;;;15.46;100.00
63970;BME280;50156;37.772;-122.432;2022-10-18T09:08:35;101234.27;;;15.37;100.00
63970;BME280;50156;37.772;-122.432;2022-10-18T09:11:23;101233.77;;;15.34;100.00
63970;BME280;50156;37.772;-122.432;2022-10-18T09:16:01;101234.64;;;15.30;100.00
63970;BME280;50156;37.772;-122.432;2022-10-18T09:18:44;101235.15;;;15.25;100.00
63970;BME280;50156;37.772;-122.432;2022-10-18T09:21:20;101235.54;;;15.18;100.00
63970;BME280;50156;37.772;-122.432;2022-10-18T09:23:59;101237.21;;;15.19;100.00
63970;BME280;50156;37.772;-122.432;2022-10-18T09:26:40;101236.75;;;15.16;100.00
63970;BME280;50156;37.772;-122.432;2022-10-18T09:29:25;101237.79;;;15.15;100.00
63970;BME280;50156;37.772;-122.432;2022-10-18T09:32:01;101237.25;;;15.14;100.00
63970;BME280;50156;37.772;-122.432;2022-10-18T09:34:38;101240.85;;;15.13;100.00
63970;BME280;50156;37.772;-122.432;2022-10-18T09:37:12;101242.02;;;15.13;100.00
63970;BME280;50156;37.772;-122.432;2022-10-18T09:39:42;101244.10;;;15.16;100.00
63970;BME280;50156;37.772;-122.432;2022-10-18T09:42:16;101248.78;;;15.15;100.00
63970;BME280;50156;37.772;-122.432;2022-10-18T09:44:50;101252.61;;;15.12;100.00
63970;BME280;50156;37.772;-122.432;2022-10-18T09:47:23;101251.13;;;15.16;100.00
63970;BME280;50156;37.772;-122.432;2022-10-18T09:49:57;101250.63;;;15.12;100.00
63970;BME280;50156;37.772;-122.432;2022-10-18T09:52:30;101248.53;;;15.18;100.00
63970;BME280;50156;37.772;-122.432;2022-10-18T09:55:04;101246.94;;;15.21;100.00
63970;BME280;50156;37.772;-122.432;2022-10-18T09:57:41;101245.37;;;15.11;100.00
63970;BME280;50156;37.772;-122.432;2022-10-18T10:00:16;101248.11;;;15.08;100.00
63970;BME280;50156;37.772;-122.432;2022-10-18T10:02:45;101247.70;;;15.20;100.00
63970;BME280;50156;37.772;-122.432;2022-10-18T10:05:14;101247.38;;;14.99;100.00
63970;BME280;50156;37.772;-122.432;2022-10-18T10:07:44;101245.62;;;14.96;100.00
63970;BME280;50156;37.772;-122.432;2022-10-18T10:10:18;101245.58;;;14.93;100.00
63970;BME280;50156;37.772;-122.432;2022-10-18T10:13:02;101241.63;;;14.90;100.00
63970;BME280;50156;37.772;-122.432;2022-10-18T10:15:32;101241.50;;;14.74;100.00
63970;BME280;50156;37.772;-122.432;2022-10-18T10:18:03;101237.50;;;14.88;100.00
63970;BME280;50156;37.772;-122.432;2022-10-18T10:20:35;101239.29;;;14.62;100.00
63970;BME280;50156;37.772;-122.432;2022-10-18T10:23:14;101237.64;;;14.71;100.00
63970;BME280;50156;37.772;-122.432;2022-10-18T10:25:50;101238.85;;;14.62;100.00
63970;BME280;50156;37.772;-122.432;2022-10-18T10:28:23;101238.73;;;14.69;100.00
63970;BME280;50156;37.772;-122.432;2022-10-18T10:30:53;101241.74;;;14.63;100.00
63970;BME280;50156;37.772;-122.432;2022-10-18T10:33:33;101245.44;;;14.63;100.00
63970;BME280;50156;37.772;-122.432;2022-10-18T10:36:05;101251.30;;;14.60;100.00
63970;BME280;50156;37.772;-122.432;2022-10-18T10:38:34;101256.92;;;14.57;100.00
63970;BME280;50156;37.772;-122.432;2022-10-18T10:41:03;101258.23;;;14.62;100.00
63970;BME280;50156;37.772;-122.432;2022-10-18T10:43:33;101264.87;;;14.51;100.00
63970;BME280;50156;37.772;-122.432;2022-10-18T10:46:08;101266.22;;;14.51;100.00
63970;BME280;50156;37.772;-122.432;2022-10-18T10:48:46;101263.01;;;14.49;100.00
63970;BME280;50156;37.772;-122.432;2022-10-18T10:51:17;101259.17;;;14.46;100.00
63970;BME280;50156;37.772;-122.432;2022-10-18T10:53:59;101260.94;;;14.49;100.00
63970;BME280;50156;37.772;-122.432;2022-10-18T10:56:31;101260.64;;;14.56;100.00
63970;BME280;50156;37.772;-122.432;2022-10-18T10:59:08;101261.46;;;14.53;100.00
63970;BME280;50156;37.772;-122.432;2022-10-18T11:01:41;101260.21;;;14.60;100.00
63970;BME280;50156;37.772;-122.432;2022-10-18T11:04:25;101264.01;;;14.73;100.00
63970;BME280;50156;37.772;-122.432;2022-10-18T11:07:02;101258.56;;;14.82;100.00
63970;BME280;50156;37.772;-122.432;2022-10-18T11:09:44;101256.77;;;14.75;100.00
63970;BME280;50156;37.772;-122.432;2022-10-18T11:12:33;101256.16;;;14.83;100.00
63970;BME280;50156;37.772;-122.432;2022-10-18T11:15:15;101254.25;;;14.94;100.00
63970;BME280;50156;37.772;-122.432;2022-10-18T11:17:54;101254.43;;;14.96;100.00
63970;BME280;50156;37.772;-122.432;2022-10-18T11:20:30;101253.75;;;14.99;100.00
63970;BME280;50156;37.772;-122.432;2022-10-18T11:23:03;101254.77;;;14.96;100.00
63970;BME280;50156;37.772;-122.432;2022-10-18T11:25:48;101256.19;;;14.96;100.00
63970;BME280;50156;37.772;-122.432;2022-10-18T11:28:30;101257.17;;;14.90;100.00
63970;BME280;50156;37.772;-122.432;2022-10-18T11:31:08;101257.44;;;14.99;100.00
63970;BME280;50156;37.772;-122.432;2022-10-18T11:33:48;101260.31;;;14.99;100.00
63970;BME280;50156;37.772;-122.432;2022-10-18T11:36:26;101259.74;;;15.01;100.00
63970;BME280;50156;37.772;-122.432;2022-10-18T11:39:02;101259.98;;;15.08;100.00
63970;BME280;50156;37.772;-122.432;2022-10-18T11:41:39;101259.54;;;15.18;100.00
63970;BME280;50156;37.772;-122.432;2022-10-18T11:44:18;101259.28;;;15.23;100.00
63970;BME280;50156;37.772;-122.432;2022-10-18T11:46:59;101262.27;;;15.16;100.00
63970;BME280;50156;37.772;-122.432;2022-10-18T11:49:42;101264.67;;;15.20;100.00
63970;BME280;50156;37.772;-122.432;2022-10-18T11:52:21;101269.33;;;15.23;100.00
63970;BME280;50156;37.772;-122.432;2022-10-18T11:55:05;101270.07;;;15.25;100.00
63970;BME280;50156;37.772;-122.432;2022-10-18T11:57:44;101272.95;;;15.28;100.00
63970;BME280;50156;37.772;-122.432;2022-10-18T12:00:33;101275.43;;;15.27;100.00
63970;BME280;50156;37.772;-122.432;2022-10-18T12:03:20;101277.83;;;15.25;100.00
63970;BME280;50156;37.772;-122.432;2022-10-18T12:05:54;101278.84;;;15.23;100.00
63970;BME280;50156;37.772;-122.432;2022-10-18T12:08:27;101279.30;;;15.18;100.00
63970;BME280;50156;37.772;-122.432;2022-10-18T12:11:05;101277.90;;;15.14;100.00
63970;BME280;50156;37.772;-122.432;2022-10-18T12:13:42;101282.41;;;15.13;100.00
63970;BME280;50156;37.772;-122.432;2022-10-18T12:16:12;101286.13;;;15.09;100.00
63970;BME280;50156;37.772;-122.432;2022-10-18T12:18:50;101288.65;;;15.08;100.00
63970;BME280;50156;37.772;-122.432;2022-10-18T12:21:22;101288.70;;;15.03;100.00
63970;BME280;50156;37.772;-122.432;2022-10-18T12:23:55;101291.73;;;15.14;100.00
63970;BME280;50156;37.772;-122.432;2022-10-18T12:26:26;101291.03;;;15.19;100.00
63970;BME280;50156;37.772;-122.432;2022-10-18T12:29:04;101295.29;;;15.04;100.00
63970;BME280;50156;37.772;-122.432;2022-10-18T12:31:39;101299.77;;;15.06;100.00
63970;BME280;50156;37.772;-122.432;2022-10-18T12:34:24;101299.13;;;14.94;100.00
63970;BME280;50156;37.772;-122.432;2022-10-18T12:37:05;101299.48;;;14.99;100.00